sensor_id;sensor_type;location;lat;lon;timestamp;P1;durP1;ratioP1;P2;durP2;ratioP2
56297;SDS011;42208;6.376;-10.782;2023-04-24T00:00:48;135.23;;;68.07;;
56297;SDS011;42208;6.376;-10.782;2023-04-24T00:03:17;134.18;;;64.40;;
56297;SDS011;42208;6.376;-10.782;2023-04-24T00:05:45;120.70;;;52.88;;
56297;SDS011;42208;6.376;-10.782;2023-04-24T00:08:13;102.85;;;45.40;;
56297;SDS011;42208;6.376;-10.782;2023-04-24T00:10:42;93.60;;;38.33;;
56297;SDS011;42208;6.376;-10.782;2023-04-24T00:13:10;104.05;;;37.00;;
56297;SDS011;42208;6.376;-10.782;2023-04-24T00:15:39;119.13;;;46.58;;
56297;SDS011;42208;6.376;-10.782;2023-04-24T00:18:07;121.32;;;49.72;;
56297;SDS011;42208;6.376;-10.782;2023-04-24T00:20:35;162.48;;;58.80;;
56297;SDS011;42208;6.376;-10.782;2023-04-24T00:23:03;177.55;;;63.58;;
56297;SDS011;42208;6.376;-10.782;2023-04-24T00:25:32;172.50;;;61.72;;
56297;SDS011;42208;6.376;-10.782;2023-04-24T00:28:00;158.48;;;54.92;;
56297;SDS011;42208;6.376;-10.782;2023-04-24T00:30:28;148.20;;;44.72;;
56297;SDS011;42208;6.376;-10.782;2023-04-24T00:32:57;122.35;;;34.03;;
56297;SDS011;42208;6.376;-10.782;2023-04-24T00:35:25;92.00;;;28.27;;
56297;SDS011;42208;6.376;-10.782;2023-04-24T00:37:53;89.88;;;25.13;;
56297;SDS011;42208;6.376;-10.782;2023-04-24T00:40:21;75.88;;;25.98;;
56297;SDS011;42208;6.376;-10.782;2023-04-24T00:42:50;81.72;;;26.48;;
56297;SDS011;42208;6.376;-10.782;2023-04-24T00:45:18;67.60;;;24.88;;
56297;SDS011;42208;6.376;-10.782;2023-04-24T00:47:46;94.22;;;27.13;;
56297;SDS011;42208;6.376;-10.782;2023-04-24T00:50:16;92.32;;;32.00;;
56297;SDS011;42208;6.376;-10.782;2023-04-24T00:52:45;71.05;;;21.45;;
56297;SDS011;42208;6.376;-10.782;2023-04-24T00:55:13;50.47;;;18.42;;
56297;SDS011;42208;6.376;-10.782;2023-04-24T00:57:42;50.50;;;17.98;;
56297;SDS011;42208;6.376;-10.782;2023-04-24T01:00:11;52.20;;;19.17;;
56297;SDS011;42208;6.376;-10.782;2023-04-24T01:02:42;56.20;;;17.95;;
56297;SDS011;42208;6.376;-10.782;2023-04-24T01:05:13;56.67;;;20.58;;
56297;SDS011;42208;6.376;-10.782;2023-04-24T01:07:43;53.20;;;18.27;;
56297;SDS011;42208;6.376;-10.782;2023-04-24T01:10:13;57.30;;;18.83;;
56297;SDS011;42208;6.376;-10.782;2023-04-24T01:12:44;55.00;;;17.13;;
56297;SDS011;42208;6.376;-10.782;2023-04-24T01:15:13;51.40;;;17.98;;
56297;SDS011;42208;6.376;-10.782;2023-04-24T01:17:41;54.97;;;17.42;;
56297;SDS011;42208;6.376;-10.782;2023-04-24T01:20:09;51.30;;;16.92;;
56297;SDS011;42208;6.376;-10.782;2023-04-24T01:22:40;37.35;;;14.93;;
56297;SDS011;42208;6.376;-10.782;2023-04-24T01:25:09;47.65;;;15.13;;
56297;SDS011;42208;6.376;-10.782;2023-04-24T01:27:37;48.05;;;14.90;;
56297;SDS011;42208;6.376;-10.782;2023-04-24T01:30:06;32.13;;;9.70;;
56297;SDS011;42208;6.376;-10.782;2023-04-24T01:32:35;26.63;;;8.15;;
56297;SDS011;42208;6.376;-10.782;2023-04-24T01:35:04;40.53;;;9.70;;
56297;SDS011;42208;6.376;-10.782;2023-04-24T01:37:33;29.38;;;9.68;;
56297;SDS011;42208;6.376;-10.782;2023-04-24T01:40:03;29.50;;;8.93;;
56297;SDS011;42208;6.376;-10.782;2023-04-24T01:42:35;32.88;;;8.23;;
56297;SDS011;42208;6.376;-10.782;2023-04-24T01:45:03;26.02;;;8.95;;
56297;SDS011;42208;6.376;-10.782;2023-04-24T01:47:32;32.75;;;9.80;;
56297;SDS011;42208;6.376;-10.782;2023-04-24T01:50:01;40.88;;;13.75;;
56297;SDS011;42208;6.376;-10.782;2023-04-24T01:52:31;42.28;;;15.52;;
56297;SDS011;42208;6.376;-10.782;2023-04-24T01:54:59;51.78;;;17.33;;
56297;SDS011;42208;6.376;-10.782;2023-04-24T01:57:28;42.45;;;15.18;;
56297;SDS011;42208;6.376;-10.782;2023-04-24T01:59:57;43.50;;;14.63;;
56297;SDS011;42208;6.376;-10.782;2023-04-24T02:02:28;43.70;;;13.88;;
56297;SDS011;42208;6.376;-10.782;2023-04-24T02:04:57;43.03;;;12.55;;
56297;SDS011;42208;6.376;-10.782;2023-04-24T02:07:25;43.33;;;13.90;;
56297;SDS011;42208;6.376;-10.782;2023-04-24T02:09:53;43.97;;;13.43;;
56297;SDS011;42208;6.376;-10.782;2023-04-24T02:12:21;27.38;;;10.27;;
56297;SDS011;42208;6.376;-10.782;2023-04-24T02:14:50;25.92;;;10.10;;
56297;SDS011;42208;6.376;-10.782;2023-04-24T02:17:19;40.50;;;13.07;;
56297;SDS011;42208;6.376;-10.782;2023-04-24T02:19:47;46.13;;;14.98;;
56297;SDS011;42208;6.376;-10.782;2023-04-24T02:22:16;49.80;;;17.50;;
56297;SDS011;42208;6.376;-10.782;2023-04-24T02:24:44;38.67;;;13.18;;
56297;SDS011;42208;6.376;-10.782;2023-04-24T02:27:14;26.83;;;9.13;;
56297;SDS011;42208;6.376;-10.782;2023-04-24T02:29:42;31.27;;;7.10;;
56297;SDS011;42208;6.376;-10.782;2023-04-24T02:32:11;25.35;;;6.20;;
56297;SDS011;42208;6.376;-10.782;2023-04-24T02:34:41;20.23;;;5.95;;
56297;SDS011;42208;6.376;-10.782;2023-04-24T02:37:11;14.90;;;5.18;;
56297;SDS011;42208;6.376;-10.782;2023-04-24T02:39:40;14.52;;;5.50;;
56297;SDS011;42208;6.376;-10.782;2023-04-24T02:42:08;20.80;;;7.28;;
56297;SDS011;42208;6.376;-10.782;2023-04-24T02:44:37;33.33;;;9.70;;
56297;SDS011;42208;6.376;-10.782;2023-04-24T02:47:05;31.55;;;10.13;;
56297;SDS011;42208;6.376;-10.782;2023-04-24T02:49:33;30.85;;;9.65;;
56297;SDS011;42208;6.376;-10.782;2023-04-24T02:52:01;29.52;;;9.20;;
56297;SDS011;42208;6.376;-10.782;2023-04-24T02:54:30;34.33;;;9.00;;
56297;SDS011;42208;6.376;-10.782;2023-04-24T02:56:58;19.27;;;7.53;;
56297;SDS011;42208;6.376;-10.782;2023-04-24T02:59:27;28.02;;;7.60;;
56297;SDS011;42208;6.376;-10.782;2023-04-24T03:01:55;30.30;;;7.45;;
56297;SDS011;42208;6.376;-10.782;2023-04-24T03:04:23;35.50;;;8.23;;
56297;SDS011;42208;6.376;-10.782;2023-04-24T03:06:52;21.63;;;6.40;;
56297;SDS011;42208;6.376;-10.782;2023-04-24T03:09:21;32.97;;;7.55;;
56297;SDS011;42208;6.376;-10.782;2023-04-24T03:11:49;22.48;;;5.43;;
56297;SDS011;42208;6.376;-10.782;2023-04-24T03:14:17;19.80;;;5.57;;
56297;SDS011;42208;6.376;-10.782;2023-04-24T03:16:45;21.15;;;6.60;;
56297;SDS011;42208;6.376;-10.782;2023-04-24T03:19:13;37.47;;;14.10;;
56297;SDS011;42208;6.376;-10.782;2023-04-24T03:21:53;52.70;;;19.13;;
56297;SDS011;42208;6.376;-10.782;2023-04-24T03:24:22;51.20;;;20.05;;
56297;SDS011;42208;6.376;-10.782;2023-04-24T03:26:50;54.88;;;22.40;;
56297;SDS011;42208;6.376;-10.782;2023-04-24T03:29:38;71.57;;;30.27;;
56297;SDS011;42208;6.376;-10.782;2023-04-24T03:32:07;88.72;;;36.67;;
56297;SDS011;42208;6.376;-10.782;2023-04-24T03:34:37;108.65;;;42.97;;
56297;SDS011;42208;6.376;-10.782;2023-04-24T03:37:07;87.13;;;41.95;;
56297;SDS011;42208;6.376;-10.782;2023-04-24T03:39:40;104.68;;;45.97;;
56297;SDS011;42208;6.376;-10.782;2023-04-24T03:42:09;108.90;;;50.38;;
56297;SDS011;42208;6.376;-10.782;2023-04-24T03:44:48;108.57;;;48.72;;
56297;SDS011;42208;6.376;-10.782;2023-04-24T03:47:18;127.90;;;55.15;;
56297;SDS011;42208;6.376;-10.782;2023-04-24T03:49:47;122.88;;;58.15;;
56297;SDS011;42208;6.376;-10.782;2023-04-24T03:52:16;104.22;;;53.88;;
56297;SDS011;42208;6.376;-10.782;2023-04-24T03:54:44;116.72;;;53.50;;
56297;SDS011;42208;6.376;-10.782;2023-04-24T03:57:13;114.60;;;53.20;;
56297;SDS011;42208;6.376;-10.782;2023-04-24T03:59:52;110.70;;;52.67;;
56297;SDS011;42208;6.376;-10.782;2023-04-24T04:02:20;126.22;;;58.85;;
56297;SDS011;42208;6.376;-10.782;2023-04-24T04:04:49;120.80;;;56.30;;
56297;SDS011;42208;6.376;-10.782;2023-04-24T04:07:17;120.80;;;55.10;;
56297;SDS011;42208;6.376;-10.782;2023-04-24T04:09:45;119.15;;;56.85;;
56297;SDS011;42208;6.376;-10.782;2023-04-24T04:12:15;117.65;;;55.47;;
56297;SDS011;42208;6.376;-10.782;2023-04-24T04:14:43;116.68;;;54.38;;
56297;SDS011;42208;6.376;-10.782;2023-04-24T04:17:11;139.68;;;64.93;;
56297;SDS011;42208;6.376;-10.782;2023-04-24T04:19:40;150.60;;;70.15;;
56297;SDS011;42208;6.376;-10.782;2023-04-24T04:22:08;137.55;;;65.05;;
56297;SDS011;42208;6.376;-10.782;2023-04-24T04:24:43;139.20;;;67.75;;
56297;SDS011;42208;6.376;-10.782;2023-04-24T04:27:12;151.63;;;67.13;;
56297;SDS011;42208;6.376;-10.782;2023-04-24T04:29:59;132.70;;;62.85;;
56297;SDS011;42208;6.376;-10.782;2023-04-24T04:32:29;114.90;;;57.42;;
56297;SDS011;42208;6.376;-10.782;2023-04-24T04:34:58;118.15;;;56.97;;
56297;SDS011;42208;6.376;-10.782;2023-04-24T04:37:27;135.13;;;58.03;;
56297;SDS011;42208;6.376;-10.782;2023-04-24T04:40:11;112.68;;;54.08;;
56297;SDS011;42208;6.376;-10.782;2023-04-24T04:42:50;122.35;;;53.90;;
56297;SDS011;42208;6.376;-10.782;2023-04-24T04:45:19;109.38;;;53.72;;
56297;SDS011;42208;6.376;-10.782;2023-04-24T04:48:08;108.57;;;51.15;;
56297;SDS011;42208;6.376;-10.782;2023-04-24T04:50:36;123.38;;;53.10;;
56297;SDS011;42208;6.376;-10.782;2023-04-24T04:53:07;116.78;;;54.17;;
56297;SDS011;42208;6.376;-10.782;2023-04-24T04:55:37;114.43;;;53.40;;
56297;SDS011;42208;6.376;-10.782;2023-04-24T04:58:17;122.63;;;53.58;;
56297;SDS011;42208;6.376;-10.782;2023-04-24T05:00:48;123.17;;;53.20;;
56297;SDS011;42208;6.376;-10.782;2023-04-24T05:03:25;119.30;;;54.75;;
56297;SDS011;42208;6.376;-10.782;2023-04-24T05:06:02;114.85;;;51.40;;
56297;SDS011;42208;6.376;-10.782;2023-04-24T05:08:34;127.95;;;54.40;;
56297;SDS011;42208;6.376;-10.782;2023-04-24T05:11:06;105.90;;;50.97;;
56297;SDS011;42208;6.376;-10.782;2023-04-24T05:13:35;98.75;;;48.42;;
56297;SDS011;42208;6.376;-10.782;2023-04-24T05:16:24;108.07;;;48.67;;
56297;SDS011;42208;6.376;-10.782;2023-04-24T05:18:54;107.22;;;49.53;;
56297;SDS011;42208;6.376;-10.782;2023-04-24T05:21:28;111.00;;;48.40;;
56297;SDS011;42208;6.376;-10.782;2023-04-24T05:23:56;117.10;;;51.20;;
56297;SDS011;42208;6.376;-10.782;2023-04-24T05:27:03;95.00;;;47.03;;
56297;SDS011;42208;6.376;-10.782;2023-04-24T05:29:37;94.25;;;45.95;;
56297;SDS011;42208;6.376;-10.782;2023-04-24T05:32:05;96.72;;;44.60;;
56297;SDS011;42208;6.376;-10.782;2023-04-24T05:34:34;95.22;;;42.47;;
56297;SDS011;42208;6.376;-10.782;2023-04-24T05:37:02;92.90;;;42.22;;
56297;SDS011;42208;6.376;-10.782;2023-04-24T05:39:30;98.53;;;47.28;;
56297;SDS011;42208;6.376;-10.782;2023-04-24T05:41:59;80.03;;;41.53;;
56297;SDS011;42208;6.376;-10.782;2023-04-24T05:44:27;90.03;;;43.53;;
56297;SDS011;42208;6.376;-10.782;2023-04-24T05:46:55;91.40;;;42.17;;
56297;SDS011;42208;6.376;-10.782;2023-04-24T05:49:24;96.78;;;40.65;;
56297;SDS011;42208;6.376;-10.782;2023-04-24T05:51:53;81.50;;;38.45;;
56297;SDS011;42208;6.376;-10.782;2023-04-24T05:54:21;105.43;;;38.45;;
56297;SDS011;42208;6.376;-10.782;2023-04-24T05:56:50;89.80;;;37.80;;
56297;SDS011;42208;6.376;-10.782;2023-04-24T05:59:29;84.72;;;38.00;;
56297;SDS011;42208;6.376;-10.782;2023-04-24T06:01:57;87.13;;;38.92;;
56297;SDS011;42208;6.376;-10.782;2023-04-24T06:04:26;84.90;;;36.50;;
56297;SDS011;42208;6.376;-10.782;2023-04-24T06:06:54;74.20;;;33.53;;
56297;SDS011;42208;6.376;-10.782;2023-04-24T06:09:23;71.18;;;28.90;;
56297;SDS011;42208;6.376;-10.782;2023-04-24T06:11:52;61.42;;;26.02;;
56297;SDS011;42208;6.376;-10.782;2023-04-24T06:14:24;59.92;;;27.17;;
56297;SDS011;42208;6.376;-10.782;2023-04-24T06:17:16;59.17;;;25.45;;
56297;SDS011;42208;6.376;-10.782;2023-04-24T06:19:45;57.60;;;25.48;;
56297;SDS011;42208;6.376;-10.782;2023-04-24T06:22:13;60.47;;;26.73;;
56297;SDS011;42208;6.376;-10.782;2023-04-24T06:24:42;63.47;;;25.05;;
56297;SDS011;42208;6.376;-10.782;2023-04-24T06:27:10;45.90;;;22.58;;
56297;SDS011;42208;6.376;-10.782;2023-04-24T06:29:41;39.50;;;18.73;;
56297;SDS011;42208;6.376;-10.782;2023-04-24T06:32:09;51.58;;;18.48;;
56297;SDS011;42208;6.376;-10.782;2023-04-24T06:34:37;37.45;;;16.70;;
56297;SDS011;42208;6.376;-10.782;2023-04-24T06:37:06;45.38;;;18.02;;
56297;SDS011;42208;6.376;-10.782;2023-04-24T06:39:34;43.00;;;21.55;;
56297;SDS011;42208;6.376;-10.782;2023-04-24T06:42:02;65.75;;;34.03;;
56297;SDS011;42208;6.376;-10.782;2023-04-24T06:44:33;73.10;;;39.65;;
56297;SDS011;42208;6.376;-10.782;2023-04-24T06:47:02;93.72;;;43.85;;
56297;SDS011;42208;6.376;-10.782;2023-04-24T06:49:31;78.70;;;37.10;;
56297;SDS011;42208;6.376;-10.782;2023-04-24T06:51:59;60.97;;;22.63;;
56297;SDS011;42208;6.376;-10.782;2023-04-24T06:54:27;57.88;;;16.20;;
56297;SDS011;42208;6.376;-10.782;2023-04-24T06:56:56;43.63;;;16.33;;
56297;SDS011;42208;6.376;-10.782;2023-04-24T06:59:24;47.38;;;15.38;;
56297;SDS011;42208;6.376;-10.782;2023-04-24T07:01:52;49.65;;;16.73;;
56297;SDS011;42208;6.376;-10.782;2023-04-24T07:04:22;52.88;;;17.00;;
56297;SDS011;42208;6.376;-10.782;2023-04-24T07:06:50;44.97;;;15.57;;
56297;SDS011;42208;6.376;-10.782;2023-04-24T07:09:19;40.95;;;14.45;;
56297;SDS011;42208;6.376;-10.782;2023-04-24T07:11:47;37.90;;;14.23;;
56297;SDS011;42208;6.376;-10.782;2023-04-24T07:14:15;50.78;;;18.65;;
56297;SDS011;42208;6.376;-10.782;2023-04-24T07:16:44;38.92;;;18.27;;
56297;SDS011;42208;6.376;-10.782;2023-04-24T07:19:13;50.72;;;17.70;;
56297;SDS011;42208;6.376;-10.782;2023-04-24T07:21:41;30.50;;;14.77;;
56297;SDS011;42208;6.376;-10.782;2023-04-24T07:24:09;37.60;;;16.45;;
56297;SDS011;42208;6.376;-10.782;2023-04-24T07:26:37;32.67;;;15.20;;
56297;SDS011;42208;6.376;-10.782;2023-04-24T07:29:06;43.78;;;15.57;;
56297;SDS011;42208;6.376;-10.782;2023-04-24T07:31:34;40.85;;;14.98;;
56297;SDS011;42208;6.376;-10.782;2023-04-24T07:34:03;32.03;;;13.77;;
56297;SDS011;42208;6.376;-10.782;2023-04-24T07:36:31;30.75;;;14.65;;
56297;SDS011;42208;6.376;-10.782;2023-04-24T07:38:59;37.38;;;14.43;;
56297;SDS011;42208;6.376;-10.782;2023-04-24T07:41:28;42.53;;;15.50;;
56297;SDS011;42208;6.376;-10.782;2023-04-24T07:48:24;59.67;;;24.17;;
56297;SDS011;42208;6.376;-10.782;2023-04-24T07:50:52;62.38;;;27.48;;
56297;SDS011;42208;6.376;-10.782;2023-04-24T07:53:21;57.53;;;28.67;;
56297;SDS011;42208;6.376;-10.782;2023-04-24T07:55:49;51.17;;;18.88;;
56297;SDS011;42208;6.376;-10.782;2023-04-24T07:58:17;35.30;;;16.40;;
56297;SDS011;42208;6.376;-10.782;2023-04-24T08:00:46;42.08;;;16.08;;
56297;SDS011;42208;6.376;-10.782;2023-04-24T08:03:14;41.67;;;16.50;;
56297;SDS011;42208;6.376;-10.782;2023-04-24T08:05:43;43.65;;;15.13;;
56297;SDS011;42208;6.376;-10.782;2023-04-24T08:08:11;31.13;;;15.00;;
56297;SDS011;42208;6.376;-10.782;2023-04-24T08:10:39;37.75;;;14.27;;
56297;SDS011;42208;6.376;-10.782;2023-04-24T08:13:07;39.95;;;14.98;;
56297;SDS011;42208;6.376;-10.782;2023-04-24T08:15:35;30.10;;;15.10;;
56297;SDS011;42208;6.376;-10.782;2023-04-24T08:18:04;44.92;;;14.73;;
56297;SDS011;42208;6.376;-10.782;2023-04-24T08:20:32;40.38;;;14.98;;
56297;SDS011;42208;6.376;-10.782;2023-04-24T08:23:03;32.22;;;14.48;;
56297;SDS011;42208;6.376;-10.782;2023-04-24T08:25:32;53.42;;;15.98;;
56297;SDS011;42208;6.376;-10.782;2023-04-24T08:28:01;50.53;;;14.98;;
56297;SDS011;42208;6.376;-10.782;2023-04-24T08:30:30;42.15;;;14.98;;
56297;SDS011;42208;6.376;-10.782;2023-04-24T08:32:59;40.88;;;14.75;;
56297;SDS011;42208;6.376;-10.782;2023-04-24T08:35:27;31.23;;;14.65;;
56297;SDS011;42208;6.376;-10.782;2023-04-24T08:37:55;39.38;;;15.70;;
56297;SDS011;42208;6.376;-10.782;2023-04-24T08:40:27;42.78;;;16.33;;
56297;SDS011;42208;6.376;-10.782;2023-04-24T08:42:56;51.70;;;16.88;;
56297;SDS011;42208;6.376;-10.782;2023-04-24T08:45:24;63.13;;;22.52;;
56297;SDS011;42208;6.376;-10.782;2023-04-24T08:47:53;59.53;;;21.83;;
56297;SDS011;42208;6.376;-10.782;2023-04-24T08:50:22;61.00;;;19.92;;
56297;SDS011;42208;6.376;-10.782;2023-04-24T08:52:50;55.95;;;19.48;;
56297;SDS011;42208;6.376;-10.782;2023-04-24T08:55:20;58.35;;;20.27;;
56297;SDS011;42208;6.376;-10.782;2023-04-24T08:57:50;55.35;;;19.42;;
56297;SDS011;42208;6.376;-10.782;2023-04-24T09:00:20;44.95;;;15.95;;
56297;SDS011;42208;6.376;-10.782;2023-04-24T09:02:49;54.72;;;16.15;;
56297;SDS011;42208;6.376;-10.782;2023-04-24T09:05:18;53.05;;;16.23;;
56297;SDS011;42208;6.376;-10.782;2023-04-24T09:07:53;39.72;;;12.32;;
56297;SDS011;42208;6.376;-10.782;2023-04-24T09:10:25;33.53;;;10.13;;
56297;SDS011;42208;6.376;-10.782;2023-04-24T09:12:54;29.17;;;9.88;;
56297;SDS011;42208;6.376;-10.782;2023-04-24T09:15:24;26.48;;;9.50;;
56297;SDS011;42208;6.376;-10.782;2023-04-24T09:17:52;45.40;;;11.85;;
56297;SDS011;42208;6.376;-10.782;2023-04-24T09:20:20;32.58;;;10.52;;
56297;SDS011;42208;6.376;-10.782;2023-04-24T09:22:48;30.50;;;9.90;;
56297;SDS011;42208;6.376;-10.782;2023-04-24T09:25:22;27.33;;;9.82;;
56297;SDS011;42208;6.376;-10.782;2023-04-24T09:27:59;29.55;;;9.05;;
56297;SDS011;42208;6.376;-10.782;2023-04-24T09:30:29;24.55;;;8.63;;
56297;SDS011;42208;6.376;-10.782;2023-04-24T09:33:13;31.88;;;10.65;;
56297;SDS011;42208;6.376;-10.782;2023-04-24T09:35:42;39.60;;;10.77;;
56297;SDS011;42208;6.376;-10.782;2023-04-24T09:38:17;28.45;;;8.98;;
56297;SDS011;42208;6.376;-10.782;2023-04-24T09:40:46;29.23;;;9.40;;
56297;SDS011;42208;6.376;-10.782;2023-04-24T09:43:14;25.63;;;9.90;;
56297;SDS011;42208;6.376;-10.782;2023-04-24T09:45:42;26.17;;;9.80;;
56297;SDS011;42208;6.376;-10.782;2023-04-24T09:48:11;34.78;;;14.15;;
56297;SDS011;42208;6.376;-10.782;2023-04-24T09:50:39;51.47;;;14.02;;
56297;SDS011;42208;6.376;-10.782;2023-04-24T09:53:13;46.85;;;16.45;;
56297;SDS011;42208;6.376;-10.782;2023-04-24T09:55:47;46.83;;;14.40;;
56297;SDS011;42208;6.376;-10.782;2023-04-24T09:58:15;40.08;;;12.00;;
56297;SDS011;42208;6.376;-10.782;2023-04-24T10:00:43;31.00;;;10.60;;
56297;SDS011;42208;6.376;-10.782;2023-04-24T10:03:13;44.47;;;10.75;;
56297;SDS011;42208;6.376;-10.782;2023-04-24T10:05:42;27.48;;;10.65;;
56297;SDS011;42208;6.376;-10.782;2023-04-24T10:08:11;24.70;;;11.75;;
56297;SDS011;42208;6.376;-10.782;2023-04-24T10:10:44;58.38;;;14.90;;
56297;SDS011;42208;6.376;-10.782;2023-04-24T10:13:14;51.90;;;12.68;;
56297;SDS011;42208;6.376;-10.782;2023-04-24T10:15:43;43.83;;;14.60;;
56297;SDS011;42208;6.376;-10.782;2023-04-24T10:18:11;52.88;;;14.43;;
56297;SDS011;42208;6.376;-10.782;2023-04-24T10:20:40;65.60;;;18.20;;
56297;SDS011;42208;6.376;-10.782;2023-04-24T10:23:08;49.20;;;12.90;;
56297;SDS011;42208;6.376;-10.782;2023-04-24T10:25:36;24.90;;;8.15;;
56297;SDS011;42208;6.376;-10.782;2023-04-24T10:28:05;27.40;;;8.05;;
56297;SDS011;42208;6.376;-10.782;2023-04-24T10:30:36;34.28;;;8.68;;
56297;SDS011;42208;6.376;-10.782;2023-04-24T10:33:07;23.40;;;7.22;;
56297;SDS011;42208;6.376;-10.782;2023-04-24T10:35:37;31.15;;;6.88;;
56297;SDS011;42208;6.376;-10.782;2023-04-24T10:38:13;25.25;;;8.73;;
56297;SDS011;42208;6.376;-10.782;2023-04-24T10:40:45;28.67;;;8.38;;
56297;SDS011;42208;6.376;-10.782;2023-04-24T10:43:13;32.70;;;8.80;;
56297;SDS011;42208;6.376;-10.782;2023-04-24T10:46:00;31.40;;;9.02;;
56297;SDS011;42208;6.376;-10.782;2023-04-24T10:48:33;34.60;;;11.82;;
56297;SDS011;42208;6.376;-10.782;2023-04-24T10:51:02;24.30;;;8.50;;
56297;SDS011;42208;6.376;-10.782;2023-04-24T10:53:30;20.80;;;5.22;;
56297;SDS011;42208;6.376;-10.782;2023-04-24T10:56:03;25.40;;;6.63;;
56297;SDS011;42208;6.376;-10.782;2023-04-24T10:58:37;32.63;;;9.07;;
56297;SDS011;42208;6.376;-10.782;2023-04-24T11:01:05;16.90;;;4.75;;
56297;SDS011;42208;6.376;-10.782;2023-04-24T11:03:34;29.73;;;6.43;;
56297;SDS011;42208;6.376;-10.782;2023-04-24T11:06:06;18.33;;;3.88;;
56297;SDS011;42208;6.376;-10.782;2023-04-24T11:08:39;25.60;;;5.25;;
56297;SDS011;42208;6.376;-10.782;2023-04-24T11:11:15;26.85;;;5.63;;
56297;SDS011;42208;6.376;-10.782;2023-04-24T11:14:18;26.83;;;9.38;;
56297;SDS011;42208;6.376;-10.782;2023-04-24T11:16:45;27.73;;;3.90;;
56297;SDS011;42208;6.376;-10.782;2023-04-24T11:19:23;22.00;;;4.28;;
56297;SDS011;42208;6.376;-10.782;2023-04-24T11:22:03;23.15;;;4.22;;
56297;SDS011;42208;6.376;-10.782;2023-04-24T11:27:21;18.27;;;6.72;;
56297;SDS011;42208;6.376;-10.782;2023-04-24T11:32:29;16.48;;;3.40;;
56297;SDS011;42208;6.376;-10.782;2023-04-24T11:37:40;25.60;;;5.07;;
56297;SDS011;42208;6.376;-10.782;2023-04-24T11:40:20;24.88;;;5.72;;
56297;SDS011;42208;6.376;-10.782;2023-04-24T11:42:51;32.30;;;7.60;;
56297;SDS011;42208;6.376;-10.782;2023-04-24T11:47:51;15.50;;;5.20;;
56297;SDS011;42208;6.376;-10.782;2023-04-24T11:50:23;17.80;;;4.90;;
56297;SDS011;42208;6.376;-10.782;2023-04-24T11:52:53;28.15;;;8.13;;
56297;SDS011;42208;6.376;-10.782;2023-04-24T11:57:51;30.45;;;7.07;;
56297;SDS011;42208;6.376;-10.782;2023-04-24T12:03:03;20.63;;;5.55;;
56297;SDS011;42208;6.376;-10.782;2023-04-24T12:05:37;12.63;;;4.32;;
56297;SDS011;42208;6.376;-10.782;2023-04-24T12:08:06;21.20;;;4.95;;
56297;SDS011;42208;6.376;-10.782;2023-04-24T12:10:35;15.02;;;3.95;;
56297;SDS011;42208;6.376;-10.782;2023-04-24T12:13:03;29.88;;;4.65;;
56297;SDS011;42208;6.376;-10.782;2023-04-24T12:15:32;17.33;;;4.13;;
56297;SDS011;42208;6.376;-10.782;2023-04-24T12:18:00;30.55;;;5.50;;
56297;SDS011;42208;6.376;-10.782;2023-04-24T12:20:29;29.30;;;4.07;;
56297;SDS011;42208;6.376;-10.782;2023-04-24T12:23:00;25.75;;;4.57;;
56297;SDS011;42208;6.376;-10.782;2023-04-24T12:25:29;15.00;;;4.03;;
56297;SDS011;42208;6.376;-10.782;2023-04-24T12:30:34;19.02;;;3.08;;
56297;SDS011;42208;6.376;-10.782;2023-04-24T12:33:05;13.55;;;3.10;;
56297;SDS011;42208;6.376;-10.782;2023-04-24T12:35:34;9.70;;;3.10;;
56297;SDS011;42208;6.376;-10.782;2023-04-24T12:38:09;14.52;;;3.17;;
56297;SDS011;42208;6.376;-10.782;2023-04-24T12:40:39;16.33;;;3.75;;
56297;SDS011;42208;6.376;-10.782;2023-04-24T12:43:15;14.55;;;3.88;;
56297;SDS011;42208;6.376;-10.782;2023-04-24T12:45:47;16.73;;;3.17;;
56297;SDS011;42208;6.376;-10.782;2023-04-24T12:48:16;21.77;;;4.57;;
56297;SDS011;42208;6.376;-10.782;2023-04-24T12:50:44;17.40;;;4.63;;
56297;SDS011;42208;6.376;-10.782;2023-04-24T12:53:14;24.85;;;4.45;;
56297;SDS011;42208;6.376;-10.782;2023-04-24T12:55:43;26.33;;;4.13;;
56297;SDS011;42208;6.376;-10.782;2023-04-24T12:58:12;16.33;;;3.80;;
56297;SDS011;42208;6.376;-10.782;2023-04-24T13:00:40;11.32;;;3.45;;
56297;SDS011;42208;6.376;-10.782;2023-04-24T13:03:08;19.58;;;5.22;;
56297;SDS011;42208;6.376;-10.782;2023-04-24T13:05:37;10.90;;;3.17;;
56297;SDS011;42208;6.376;-10.782;2023-04-24T13:08:05;24.23;;;5.20;;
56297;SDS011;42208;6.376;-10.782;2023-04-24T13:10:34;17.67;;;4.60;;
56297;SDS011;42208;6.376;-10.782;2023-04-24T13:13:02;14.85;;;3.35;;
56297;SDS011;42208;6.376;-10.782;2023-04-24T13:15:31;15.13;;;3.22;;
56297;SDS011;42208;6.376;-10.782;2023-04-24T13:17:59;13.65;;;3.67;;
56297;SDS011;42208;6.376;-10.782;2023-04-24T13:20:28;13.60;;;3.42;;
56297;SDS011;42208;6.376;-10.782;2023-04-24T13:22:56;19.95;;;4.03;;
56297;SDS011;42208;6.376;-10.782;2023-04-24T13:25:24;13.80;;;3.95;;
56297;SDS011;42208;6.376;-10.782;2023-04-24T13:27:52;19.80;;;5.32;;
56297;SDS011;42208;6.376;-10.782;2023-04-24T13:30:20;27.70;;;5.05;;
56297;SDS011;42208;6.376;-10.782;2023-04-24T13:32:49;18.77;;;7.88;;
56297;SDS011;42208;6.376;-10.782;2023-04-24T13:35:17;15.68;;;4.55;;
56297;SDS011;42208;6.376;-10.782;2023-04-24T13:37:45;19.70;;;5.85;;
56297;SDS011;42208;6.376;-10.782;2023-04-24T13:40:14;24.27;;;7.43;;
56297;SDS011;42208;6.376;-10.782;2023-04-24T13:42:42;30.45;;;7.03;;
56297;SDS011;42208;6.376;-10.782;2023-04-24T13:45:13;21.77;;;4.27;;
56297;SDS011;42208;6.376;-10.782;2023-04-24T13:47:51;16.90;;;4.82;;
56297;SDS011;42208;6.376;-10.782;2023-04-24T13:50:20;24.13;;;6.63;;
56297;SDS011;42208;6.376;-10.782;2023-04-24T13:52:48;12.98;;;4.93;;
56297;SDS011;42208;6.376;-10.782;2023-04-24T13:55:19;29.17;;;5.38;;
56297;SDS011;42208;6.376;-10.782;2023-04-24T13:57:47;14.32;;;6.18;;
56297;SDS011;42208;6.376;-10.782;2023-04-24T14:00:16;23.95;;;6.43;;
56297;SDS011;42208;6.376;-10.782;2023-04-24T14:02:45;57.90;;;33.72;;
56297;SDS011;42208;6.376;-10.782;2023-04-24T14:05:14;78.78;;;43.60;;
56297;SDS011;42208;6.376;-10.782;2023-04-24T14:07:42;64.40;;;32.15;;
56297;SDS011;42208;6.376;-10.782;2023-04-24T14:10:10;72.32;;;26.92;;
56297;SDS011;42208;6.376;-10.782;2023-04-24T14:12:38;37.38;;;21.20;;
56297;SDS011;42208;6.376;-10.782;2023-04-24T14:15:07;33.92;;;15.95;;
56297;SDS011;42208;6.376;-10.782;2023-04-24T14:17:36;36.30;;;12.23;;
56297;SDS011;42208;6.376;-10.782;2023-04-24T14:20:04;23.02;;;6.47;;
56297;SDS011;42208;6.376;-10.782;2023-04-24T14:22:33;26.05;;;8.95;;
56297;SDS011;42208;6.376;-10.782;2023-04-24T14:25:01;39.03;;;14.95;;
56297;SDS011;42208;6.376;-10.782;2023-04-24T14:27:31;29.05;;;11.43;;
56297;SDS011;42208;6.376;-10.782;2023-04-24T14:30:00;28.83;;;4.65;;
56297;SDS011;42208;6.376;-10.782;2023-04-24T14:32:29;35.72;;;9.18;;
56297;SDS011;42208;6.376;-10.782;2023-04-24T14:34:57;20.38;;;5.70;;
56297;SDS011;42208;6.376;-10.782;2023-04-24T14:37:25;37.05;;;8.82;;
56297;SDS011;42208;6.376;-10.782;2023-04-24T14:39:53;50.33;;;11.00;;
56297;SDS011;42208;6.376;-10.782;2023-04-24T14:42:42;27.17;;;7.70;;
56297;SDS011;42208;6.376;-10.782;2023-04-24T14:45:10;20.17;;;4.68;;
56297;SDS011;42208;6.376;-10.782;2023-04-24T14:47:39;24.80;;;5.28;;
56297;SDS011;42208;6.376;-10.782;2023-04-24T14:50:07;21.55;;;5.63;;